sensor_id;sensor_type;location;lat;lon;timestamp;P1;durP1;ratioP1;P2;durP2;ratioP2
76848;SDS011;65814;51.134;16.980;2023-09-18T00:02:15;8.50;;;7.60;;
76848;SDS011;65814;51.134;16.980;2023-09-18T00:04:43;10.90;;;7.80;;
76848;SDS011;65814;51.134;16.980;2023-09-18T00:07:11;8.80;;;7.20;;
76848;SDS011;65814;51.134;16.980;2023-09-18T00:09:39;8.30;;;7.50;;
76848;SDS011;65814;51.134;16.980;2023-09-18T00:12:07;7.80;;;6.60;;
76848;SDS011;65814;51.134;16.980;2023-09-18T00:14:35;7.50;;;6.70;;
76848;SDS011;65814;51.134;16.980;2023-09-18T00:17:04;9.50;;;7.70;;
76848;SDS011;65814;51.134;16.980;2023-09-18T00:19:32;10.90;;;7.80;;
76848;SDS011;65814;51.134;16.980;2023-09-18T00:22:01;7.10;;;6.30;;
76848;SDS011;65814;51.134;16.980;2023-09-18T00:24:29;8.80;;;7.60;;
76848;SDS011;65814;51.134;16.980;2023-09-18T00:26:56;8.90;;;7.60;;
76848;SDS011;65814;51.134;16.980;2023-09-18T00:29:24;8.70;;;7.30;;
76848;SDS011;65814;51.134;16.980;2023-09-18T00:31:52;9.40;;;6.80;;
76848;SDS011;65814;51.134;16.980;2023-09-18T00:34:21;7.90;;;7.00;;
76848;SDS011;65814;51.134;16.980;2023-09-18T00:36:49;8.80;;;7.70;;
76848;SDS011;65814;51.134;16.980;2023-09-18T00:39:17;8.90;;;7.20;;
76848;SDS011;65814;51.134;16.980;2023-09-18T00:41:45;7.90;;;7.00;;
76848;SDS011;65814;51.134;16.980;2023-09-18T00:44:16;9.40;;;6.80;;
76848;SDS011;65814;51.134;16.980;2023-09-18T00:46:45;8.90;;;7.00;;
76848;SDS011;65814;51.134;16.980;2023-09-18T00:49:13;8.50;;;7.70;;
76848;SDS011;65814;51.134;16.980;2023-09-18T00:51:41;8.40;;;7.40;;
76848;SDS011;65814;51.134;16.980;2023-09-18T00:54:10;14.00;;;7.40;;
76848;SDS011;65814;51.134;16.980;2023-09-18T00:56:38;9.30;;;7.10;;
76848;SDS011;65814;51.134;16.980;2023-09-18T00:59:07;8.70;;;7.80;;
76848;SDS011;65814;51.134;16.980;2023-09-18T01:01:36;8.20;;;7.40;;
76848;SDS011;65814;51.134;16.980;2023-09-18T01:04:04;8.30;;;7.00;;
76848;SDS011;65814;51.134;16.980;2023-09-18T01:06:35;10.90;;;7.80;;
76848;SDS011;65814;51.134;16.980;2023-09-18T01:09:03;10.20;;;8.30;;
76848;SDS011;65814;51.134;16.980;2023-09-18T01:11:43;9.00;;;8.10;;
76848;SDS011;65814;51.134;16.980;2023-09-18T01:14:37;9.60;;;8.20;;
76848;SDS011;65814;51.134;16.980;2023-09-18T01:17:17;10.10;;;8.70;;
76848;SDS011;65814;51.134;16.980;2023-09-18T01:19:46;10.60;;;8.10;;
76848;SDS011;65814;51.134;16.980;2023-09-18T01:22:15;10.00;;;9.00;;
76848;SDS011;65814;51.134;16.980;2023-09-18T01:24:45;9.80;;;8.00;;
76848;SDS011;65814;51.134;16.980;2023-09-18T01:27:18;8.60;;;7.70;;
76848;SDS011;65814;51.134;16.980;2023-09-18T01:29:46;9.20;;;7.80;;
76848;SDS011;65814;51.134;16.980;2023-09-18T01:32:15;9.50;;;8.30;;
76848;SDS011;65814;51.134;16.980;2023-09-18T01:34:46;9.10;;;8.20;;
76848;SDS011;65814;51.134;16.980;2023-09-18T01:37:25;9.10;;;8.10;;
76848;SDS011;65814;51.134;16.980;2023-09-18T01:39:54;9.40;;;8.30;;
76848;SDS011;65814;51.134;16.980;2023-09-18T01:42:26;11.80;;;9.40;;
76848;SDS011;65814;51.134;16.980;2023-09-18T01:44:54;11.50;;;8.70;;
76848;SDS011;65814;51.134;16.980;2023-09-18T01:47:22;9.60;;;7.60;;
76848;SDS011;65814;51.134;16.980;2023-09-18T01:49:56;9.70;;;8.20;;
76848;SDS011;65814;51.134;16.980;2023-09-18T01:52:24;9.60;;;8.70;;
76848;SDS011;65814;51.134;16.980;2023-09-18T01:54:52;9.50;;;8.30;;
76848;SDS011;65814;51.134;16.980;2023-09-18T01:57:20;10.20;;;8.60;;
76848;SDS011;65814;51.134;16.980;2023-09-18T01:59:48;12.10;;;8.50;;
76848;SDS011;65814;51.134;16.980;2023-09-18T02:02:16;9.50;;;8.40;;
76848;SDS011;65814;51.134;16.980;2023-09-18T02:05:01;11.30;;;8.70;;
76848;SDS011;65814;51.134;16.980;2023-09-18T02:07:36;10.60;;;8.30;;
76848;SDS011;65814;51.134;16.980;2023-09-18T02:10:04;9.60;;;8.40;;
76848;SDS011;65814;51.134;16.980;2023-09-18T02:12:33;9.00;;;7.50;;
76848;SDS011;65814;51.134;16.980;2023-09-18T02:15:01;9.90;;;8.30;;
76848;SDS011;65814;51.134;16.980;2023-09-18T02:17:33;12.80;;;8.60;;
76848;SDS011;65814;51.134;16.980;2023-09-18T02:20:02;9.00;;;8.00;;
76848;SDS011;65814;51.134;16.980;2023-09-18T02:22:32;11.40;;;8.50;;
76848;SDS011;65814;51.134;16.980;2023-09-18T02:25:00;11.00;;;8.00;;
76848;SDS011;65814;51.134;16.980;2023-09-18T02:27:28;10.30;;;8.70;;
76848;SDS011;65814;51.134;16.980;2023-09-18T02:29:56;10.30;;;8.50;;
76848;SDS011;65814;51.134;16.980;2023-09-18T02:32:24;9.00;;;8.10;;
76848;SDS011;65814;51.134;16.980;2023-09-18T02:34:52;11.00;;;8.20;;
76848;SDS011;65814;51.134;16.980;2023-09-18T02:37:20;10.10;;;8.30;;
76848;SDS011;65814;51.134;16.980;2023-09-18T02:39:48;10.60;;;9.50;;
76848;SDS011;65814;51.134;16.980;2023-09-18T02:42:16;12.40;;;9.70;;
76848;SDS011;65814;51.134;16.980;2023-09-18T02:44:44;9.30;;;8.30;;
76848;SDS011;65814;51.134;16.980;2023-09-18T02:47:12;10.10;;;9.10;;
76848;SDS011;65814;51.134;16.980;2023-09-18T02:49:40;11.10;;;8.90;;
76848;SDS011;65814;51.134;16.980;2023-09-18T02:52:08;10.50;;;8.30;;
76848;SDS011;65814;51.134;16.980;2023-09-18T02:54:36;10.70;;;8.70;;
76848;SDS011;65814;51.134;16.980;2023-09-18T02:57:04;9.10;;;8.10;;
76848;SDS011;65814;51.134;16.980;2023-09-18T02:59:32;10.40;;;9.00;;
76848;SDS011;65814;51.134;16.980;2023-09-18T03:02:01;11.00;;;8.70;;
76848;SDS011;65814;51.134;16.980;2023-09-18T03:04:29;9.10;;;7.60;;
76848;SDS011;65814;51.134;16.980;2023-09-18T03:06:59;9.40;;;8.50;;
76848;SDS011;65814;51.134;16.980;2023-09-18T03:09:26;10.50;;;9.20;;
76848;SDS011;65814;51.134;16.980;2023-09-18T03:11:54;9.50;;;8.00;;
76848;SDS011;65814;51.134;16.980;2023-09-18T03:14:22;11.80;;;8.70;;
76848;SDS011;65814;51.134;16.980;2023-09-18T03:16:50;10.80;;;8.40;;
76848;SDS011;65814;51.134;16.980;2023-09-18T03:19:18;11.10;;;8.60;;
76848;SDS011;65814;51.134;16.980;2023-09-18T03:21:46;9.20;;;8.20;;
76848;SDS011;65814;51.134;16.980;2023-09-18T03:24:14;10.10;;;8.30;;
76848;SDS011;65814;51.134;16.980;2023-09-18T03:26:42;10.80;;;9.20;;
76848;SDS011;65814;51.134;16.980;2023-09-18T03:29:10;10.60;;;8.90;;
76848;SDS011;65814;51.134;16.980;2023-09-18T03:31:38;8.80;;;8.00;;
76848;SDS011;65814;51.134;16.980;2023-09-18T03:34:05;10.70;;;8.20;;
76848;SDS011;65814;51.134;16.980;2023-09-18T03:36:33;9.70;;;8.40;;
76848;SDS011;65814;51.134;16.980;2023-09-18T03:39:03;9.60;;;8.00;;
76848;SDS011;65814;51.134;16.980;2023-09-18T03:41:32;11.10;;;9.50;;
76848;SDS011;65814;51.134;16.980;2023-09-18T03:44:02;11.00;;;8.10;;
76848;SDS011;65814;51.134;16.980;2023-09-18T03:46:30;9.60;;;8.10;;
76848;SDS011;65814;51.134;16.980;2023-09-18T03:48:59;11.30;;;9.10;;
76848;SDS011;65814;51.134;16.980;2023-09-18T03:51:26;10.40;;;8.70;;
76848;SDS011;65814;51.134;16.980;2023-09-18T03:53:55;11.00;;;9.60;;
76848;SDS011;65814;51.134;16.980;2023-09-18T03:56:23;10.60;;;8.60;;
76848;SDS011;65814;51.134;16.980;2023-09-18T03:58:51;12.30;;;8.70;;
76848;SDS011;65814;51.134;16.980;2023-09-18T04:01:19;13.10;;;10.30;;
76848;SDS011;65814;51.134;16.980;2023-09-18T04:03:47;11.10;;;9.40;;
76848;SDS011;65814;51.134;16.980;2023-09-18T04:06:15;10.60;;;9.00;;
76848;SDS011;65814;51.134;16.980;2023-09-18T04:08:43;10.90;;;9.50;;
76848;SDS011;65814;51.134;16.980;2023-09-18T04:11:11;10.70;;;9.60;;
76848;SDS011;65814;51.134;16.980;2023-09-18T04:13:39;11.60;;;10.00;;
76848;SDS011;65814;51.134;16.980;2023-09-18T04:16:07;8.90;;;8.00;;
76848;SDS011;65814;51.134;16.980;2023-09-18T04:18:35;10.30;;;9.20;;
76848;SDS011;65814;51.134;16.980;2023-09-18T04:21:03;12.10;;;10.00;;
76848;SDS011;65814;51.134;16.980;2023-09-18T04:23:31;12.10;;;9.10;;
76848;SDS011;65814;51.134;16.980;2023-09-18T04:25:59;12.00;;;9.50;;
76848;SDS011;65814;51.134;16.980;2023-09-18T04:28:29;12.30;;;10.60;;
76848;SDS011;65814;51.134;16.980;2023-09-18T04:30:57;11.20;;;9.40;;
76848;SDS011;65814;51.134;16.980;2023-09-18T04:33:25;13.40;;;10.60;;
76848;SDS011;65814;51.134;16.980;2023-09-18T04:35:56;10.50;;;9.40;;
76848;SDS011;65814;51.134;16.980;2023-09-18T04:38:24;12.70;;;10.00;;
76848;SDS011;65814;51.134;16.980;2023-09-18T04:40:58;12.80;;;10.10;;
76848;SDS011;65814;51.134;16.980;2023-09-18T04:43:27;14.60;;;9.70;;
76848;SDS011;65814;51.134;16.980;2023-09-18T04:45:57;11.60;;;10.40;;
76848;SDS011;65814;51.134;16.980;2023-09-18T04:48:25;13.90;;;9.50;;
76848;SDS011;65814;51.134;16.980;2023-09-18T04:50:53;13.50;;;10.00;;
76848;SDS011;65814;51.134;16.980;2023-09-18T04:53:21;10.90;;;9.40;;
76848;SDS011;65814;51.134;16.980;2023-09-18T04:55:49;12.90;;;11.00;;
76848;SDS011;65814;51.134;16.980;2023-09-18T04:58:17;12.80;;;9.40;;
76848;SDS011;65814;51.134;16.980;2023-09-18T05:00:46;13.50;;;10.00;;
76848;SDS011;65814;51.134;16.980;2023-09-18T05:03:14;13.30;;;10.80;;
76848;SDS011;65814;51.134;16.980;2023-09-18T05:05:42;13.80;;;10.50;;
76848;SDS011;65814;51.134;16.980;2023-09-18T05:08:12;14.50;;;10.70;;
76848;SDS011;65814;51.134;16.980;2023-09-18T05:10:40;12.70;;;9.80;;
76848;SDS011;65814;51.134;16.980;2023-09-18T05:13:08;11.40;;;10.10;;
76848;SDS011;65814;51.134;16.980;2023-09-18T05:15:36;11.20;;;10.10;;
76848;SDS011;65814;51.134;16.980;2023-09-18T05:18:04;15.10;;;10.70;;
76848;SDS011;65814;51.134;16.980;2023-09-18T05:20:33;12.30;;;10.70;;
76848;SDS011;65814;51.134;16.980;2023-09-18T05:23:02;12.50;;;9.60;;
76848;SDS011;65814;51.134;16.980;2023-09-18T05:25:30;16.00;;;11.40;;
76848;SDS011;65814;51.134;16.980;2023-09-18T05:28:01;12.80;;;10.20;;
76848;SDS011;65814;51.134;16.980;2023-09-18T05:30:32;13.30;;;11.00;;
76848;SDS011;65814;51.134;16.980;2023-09-18T05:33:06;12.30;;;11.00;;
76848;SDS011;65814;51.134;16.980;2023-09-18T05:35:39;15.40;;;10.40;;
76848;SDS011;65814;51.134;16.980;2023-09-18T05:38:10;18.80;;;10.70;;
76848;SDS011;65814;51.134;16.980;2023-09-18T05:40:41;11.50;;;10.30;;
76848;SDS011;65814;51.134;16.980;2023-09-18T05:43:09;12.20;;;10.70;;
76848;SDS011;65814;51.134;16.980;2023-09-18T05:45:38;14.70;;;10.20;;
76848;SDS011;65814;51.134;16.980;2023-09-18T05:48:05;14.10;;;10.70;;
76848;SDS011;65814;51.134;16.980;2023-09-18T05:50:34;15.00;;;11.30;;
76848;SDS011;65814;51.134;16.980;2023-09-18T05:53:06;13.30;;;10.60;;
76848;SDS011;65814;51.134;16.980;2023-09-18T05:55:34;11.50;;;10.10;;
76848;SDS011;65814;51.134;16.980;2023-09-18T05:58:02;12.70;;;11.00;;
76848;SDS011;65814;51.134;16.980;2023-09-18T06:00:35;16.20;;;10.30;;
76848;SDS011;65814;51.134;16.980;2023-09-18T06:03:04;13.60;;;9.60;;
76848;SDS011;65814;51.134;16.980;2023-09-18T06:05:34;12.30;;;10.00;;
76848;SDS011;65814;51.134;16.980;2023-09-18T06:08:02;14.20;;;10.30;;
76848;SDS011;65814;51.134;16.980;2023-09-18T06:10:30;13.20;;;10.00;;
76848;SDS011;65814;51.134;16.980;2023-09-18T06:12:59;14.70;;;10.80;;
76848;SDS011;65814;51.134;16.980;2023-09-18T06:15:32;13.10;;;10.60;;
76848;SDS011;65814;51.134;16.980;2023-09-18T06:18:00;13.70;;;10.50;;
76848;SDS011;65814;51.134;16.980;2023-09-18T06:20:28;15.40;;;11.10;;
76848;SDS011;65814;51.134;16.980;2023-09-18T06:22:56;12.60;;;9.40;;
76848;SDS011;65814;51.134;16.980;2023-09-18T06:25:24;10.90;;;9.70;;
76848;SDS011;65814;51.134;16.980;2023-09-18T06:27:52;12.30;;;10.20;;
76848;SDS011;65814;51.134;16.980;2023-09-18T06:30:20;15.60;;;9.50;;
76848;SDS011;65814;51.134;16.980;2023-09-18T06:32:49;14.80;;;11.30;;
76848;SDS011;65814;51.134;16.980;2023-09-18T06:35:17;14.50;;;10.30;;
76848;SDS011;65814;51.134;16.980;2023-09-18T06:37:45;14.20;;;10.20;;
76848;SDS011;65814;51.134;16.980;2023-09-18T06:40:14;11.10;;;10.00;;
76848;SDS011;65814;51.134;16.980;2023-09-18T06:42:41;13.10;;;10.40;;
76848;SDS011;65814;51.134;16.980;2023-09-18T06:45:10;14.10;;;11.00;;
76848;SDS011;65814;51.134;16.980;2023-09-18T06:47:38;13.80;;;10.60;;
76848;SDS011;65814;51.134;16.980;2023-09-18T06:50:07;12.40;;;9.90;;
76848;SDS011;65814;51.134;16.980;2023-09-18T06:52:36;17.70;;;10.70;;
76848;SDS011;65814;51.134;16.980;2023-09-18T06:55:04;13.10;;;11.20;;
76848;SDS011;65814;51.134;16.980;2023-09-18T06:57:32;15.50;;;10.50;;
76848;SDS011;65814;51.134;16.980;2023-09-18T07:00:01;12.60;;;10.80;;
76848;SDS011;65814;51.134;16.980;2023-09-18T07:02:29;17.10;;;10.80;;
76848;SDS011;65814;51.134;16.980;2023-09-18T07:04:57;12.90;;;10.20;;
76848;SDS011;65814;51.134;16.980;2023-09-18T07:07:25;17.70;;;11.60;;
76848;SDS011;65814;51.134;16.980;2023-09-18T07:09:54;16.00;;;10.70;;
76848;SDS011;65814;51.134;16.980;2023-09-18T07:12:24;14.10;;;10.70;;
76848;SDS011;65814;51.134;16.980;2023-09-18T07:14:52;12.90;;;10.40;;
76848;SDS011;65814;51.134;16.980;2023-09-18T07:17:20;13.50;;;10.80;;
76848;SDS011;65814;51.134;16.980;2023-09-18T07:19:48;12.20;;;10.90;;
76848;SDS011;65814;51.134;16.980;2023-09-18T07:22:16;11.50;;;9.90;;
76848;SDS011;65814;51.134;16.980;2023-09-18T07:24:44;14.40;;;10.40;;
76848;SDS011;65814;51.134;16.980;2023-09-18T07:27:14;14.80;;;10.50;;
76848;SDS011;65814;51.134;16.980;2023-09-18T07:29:42;14.90;;;10.70;;
76848;SDS011;65814;51.134;16.980;2023-09-18T07:32:10;15.60;;;10.40;;
76848;SDS011;65814;51.134;16.980;2023-09-18T07:34:38;14.40;;;10.20;;
76848;SDS011;65814;51.134;16.980;2023-09-18T07:37:06;11.50;;;9.60;;
76848;SDS011;65814;51.134;16.980;2023-09-18T07:39:34;14.70;;;11.10;;
76848;SDS011;65814;51.134;16.980;2023-09-18T07:42:02;15.30;;;10.70;;
76848;SDS011;65814;51.134;16.980;2023-09-18T07:44:31;13.00;;;10.00;;
76848;SDS011;65814;51.134;16.980;2023-09-18T07:46:59;11.90;;;10.00;;
76848;SDS011;65814;51.134;16.980;2023-09-18T07:49:29;15.10;;;11.00;;
76848;SDS011;65814;51.134;16.980;2023-09-18T07:51:57;13.60;;;10.60;;
76848;SDS011;65814;51.134;16.980;2023-09-18T07:54:25;12.70;;;10.80;;
76848;SDS011;65814;51.134;16.980;2023-09-18T07:56:53;15.20;;;10.40;;
76848;SDS011;65814;51.134;16.980;2023-09-18T07:59:21;14.60;;;10.40;;
76848;SDS011;65814;51.134;16.980;2023-09-18T08:01:52;16.30;;;10.30;;
76848;SDS011;65814;51.134;16.980;2023-09-18T08:04:22;15.40;;;10.90;;
76848;SDS011;65814;51.134;16.980;2023-09-18T08:06:50;13.50;;;10.10;;
76848;SDS011;65814;51.134;16.980;2023-09-18T08:09:18;14.00;;;10.90;;
76848;SDS011;65814;51.134;16.980;2023-09-18T08:11:45;14.10;;;10.40;;
76848;SDS011;65814;51.134;16.980;2023-09-18T08:14:14;16.10;;;11.70;;
76848;SDS011;65814;51.134;16.980;2023-09-18T08:16:42;14.60;;;9.50;;
76848;SDS011;65814;51.134;16.980;2023-09-18T08:19:10;13.50;;;12.00;;
76848;SDS011;65814;51.134;16.980;2023-09-18T08:21:38;14.70;;;10.70;;
76848;SDS011;65814;51.134;16.980;2023-09-18T08:24:06;18.60;;;11.60;;
76848;SDS011;65814;51.134;16.980;2023-09-18T08:26:34;15.10;;;11.40;;
76848;SDS011;65814;51.134;16.980;2023-09-18T08:29:02;13.00;;;11.70;;
76848;SDS011;65814;51.134;16.980;2023-09-18T08:31:30;12.70;;;10.50;;
76848;SDS011;65814;51.134;16.980;2023-09-18T08:33:59;11.90;;;10.60;;
76848;SDS011;65814;51.134;16.980;2023-09-18T08:36:27;12.90;;;11.20;;
76848;SDS011;65814;51.134;16.980;2023-09-18T08:38:57;12.60;;;11.00;;
76848;SDS011;65814;51.134;16.980;2023-09-18T08:41:26;15.40;;;11.50;;
76848;SDS011;65814;51.134;16.980;2023-09-18T08:43:56;15.80;;;12.50;;
76848;SDS011;65814;51.134;16.980;2023-09-18T08:46:28;14.30;;;12.30;;
76848;SDS011;65814;51.134;16.980;2023-09-18T08:49:00;15.10;;;12.30;;
76848;SDS011;65814;51.134;16.980;2023-09-18T08:51:28;15.30;;;11.80;;
76848;SDS011;65814;51.134;16.980;2023-09-18T08:53:56;13.70;;;11.90;;
76848;SDS011;65814;51.134;16.980;2023-09-18T08:56:24;13.60;;;11.50;;
76848;SDS011;65814;51.134;16.980;2023-09-18T08:58:53;13.30;;;11.90;;
76848;SDS011;65814;51.134;16.980;2023-09-18T09:01:21;13.80;;;12.20;;
76848;SDS011;65814;51.134;16.980;2023-09-18T09:03:50;13.50;;;11.70;;
76848;SDS011;65814;51.134;16.980;2023-09-18T09:06:17;12.50;;;11.00;;
76848;SDS011;65814;51.134;16.980;2023-09-18T09:08:45;15.20;;;11.70;;
76848;SDS011;65814;51.134;16.980;2023-09-18T09:11:14;13.20;;;11.50;;
76848;SDS011;65814;51.134;16.980;2023-09-18T09:13:42;15.10;;;11.90;;
76848;SDS011;65814;51.134;16.980;2023-09-18T09:16:13;13.90;;;12.30;;
76848;SDS011;65814;51.134;16.980;2023-09-18T09:18:48;14.50;;;12.80;;
76848;SDS011;65814;51.134;16.980;2023-09-18T09:21:18;19.20;;;13.40;;
76848;SDS011;65814;51.134;16.980;2023-09-18T09:23:50;13.70;;;12.20;;
76848;SDS011;65814;51.134;16.980;2023-09-18T09:26:21;18.10;;;12.50;;
76848;SDS011;65814;51.134;16.980;2023-09-18T09:28:53;16.30;;;12.80;;
76848;SDS011;65814;51.134;16.980;2023-09-18T09:31:26;15.90;;;12.90;;
76848;SDS011;65814;51.134;16.980;2023-09-18T09:33:56;15.60;;;12.60;;
76848;SDS011;65814;51.134;16.980;2023-09-18T09:36:24;15.30;;;12.00;;
76848;SDS011;65814;51.134;16.980;2023-09-18T09:38:55;17.00;;;12.20;;
76848;SDS011;65814;51.134;16.980;2023-09-18T09:41:26;15.20;;;13.00;;
76848;SDS011;65814;51.134;16.980;2023-09-18T09:43:58;14.80;;;12.70;;
76848;SDS011;65814;51.134;16.980;2023-09-18T09:46:26;15.30;;;13.00;;
76848;SDS011;65814;51.134;16.980;2023-09-18T09:49:02;12.70;;;11.30;;
76848;SDS011;65814;51.134;16.980;2023-09-18T09:51:31;14.90;;;12.70;;
76848;SDS011;65814;51.134;16.980;2023-09-18T09:54:00;13.90;;;12.50;;
76848;SDS011;65814;51.134;16.980;2023-09-18T09:56:42;13.30;;;11.60;;
76848;SDS011;65814;51.134;16.980;2023-09-18T09:59:16;14.80;;;11.60;;
76848;SDS011;65814;51.134;16.980;2023-09-18T10:01:46;13.70;;;12.30;;
76848;SDS011;65814;51.134;16.980;2023-09-18T10:04:17;12.70;;;11.30;;
76848;SDS011;65814;51.134;16.980;2023-09-18T10:06:52;14.90;;;12.50;;
76848;SDS011;65814;51.134;16.980;2023-09-18T10:09:26;14.10;;;12.60;;
76848;SDS011;65814;51.134;16.980;2023-09-18T10:11:57;13.40;;;12.00;;
76848;SDS011;65814;51.134;16.980;2023-09-18T10:14:29;14.10;;;11.70;;
76848;SDS011;65814;51.134;16.980;2023-09-18T10:17:18;12.40;;;10.60;;
76848;SDS011;65814;51.134;16.980;2023-09-18T10:22:38;12.50;;;11.10;;
76848;SDS011;65814;51.134;16.980;2023-09-18T10:25:14;14.70;;;13.20;;
76848;SDS011;65814;51.134;16.980;2023-09-18T10:27:48;14.70;;;12.30;;
76848;SDS011;65814;51.134;16.980;2023-09-18T10:30:21;16.10;;;10.90;;
76848;SDS011;65814;51.134;16.980;2023-09-18T10:32:51;13.70;;;12.30;;
76848;SDS011;65814;51.134;16.980;2023-09-18T10:35:19;12.30;;;10.90;;
76848;SDS011;65814;51.134;16.980;2023-09-18T10:37:48;11.80;;;10.50;;
76848;SDS011;65814;51.134;16.980;2023-09-18T10:40:19;13.50;;;10.50;;
76848;SDS011;65814;51.134;16.980;2023-09-18T10:42:48;12.40;;;11.10;;
76848;SDS011;65814;51.134;16.980;2023-09-18T10:45:18;16.10;;;11.70;;
76848;SDS011;65814;51.134;16.980;2023-09-18T10:47:46;12.90;;;11.00;;
76848;SDS011;65814;51.134;16.980;2023-09-18T10:50:22;15.00;;;11.60;;
76848;SDS011;65814;51.134;16.980;2023-09-18T10:52:54;12.10;;;10.60;;
76848;SDS011;65814;51.134;16.980;2023-09-18T10:55:25;11.80;;;10.40;;
76848;SDS011;65814;51.134;16.980;2023-09-18T10:57:54;11.60;;;10.30;;
76848;SDS011;65814;51.134;16.980;2023-09-18T11:00:26;15.40;;;12.40;;
76848;SDS011;65814;51.134;16.980;2023-09-18T11:05:40;11.70;;;10.50;;
76848;SDS011;65814;51.134;16.980;2023-09-18T11:08:24;12.60;;;10.40;;
76848;SDS011;65814;51.134;16.980;2023-09-18T11:10:55;13.20;;;9.60;;
76848;SDS011;65814;51.134;16.980;2023-09-18T11:13:30;10.90;;;9.70;;
76848;SDS011;65814;51.134;16.980;2023-09-18T11:21:28;13.90;;;10.70;;
76848;SDS011;65814;51.134;16.980;2023-09-18T11:26:42;11.90;;;10.60;;
76848;SDS011;65814;51.134;16.980;2023-09-18T11:29:14;11.60;;;10.10;;
76848;SDS011;65814;51.134;16.980;2023-09-18T11:31:48;11.70;;;10.00;;
76848;SDS011;65814;51.134;16.980;2023-09-18T11:34:27;15.40;;;11.20;;
76848;SDS011;65814;51.134;16.980;2023-09-18T11:37:22;11.40;;;9.90;;
76848;SDS011;65814;51.134;16.980;2023-09-18T11:39:51;11.60;;;10.40;;
76848;SDS011;65814;51.134;16.980;2023-09-18T11:42:19;14.80;;;11.00;;
76848;SDS011;65814;51.134;16.980;2023-09-18T11:44:50;12.50;;;11.10;;
76848;SDS011;65814;51.134;16.980;2023-09-18T11:47:19;11.80;;;10.40;;
76848;SDS011;65814;51.134;16.980;2023-09-18T11:49:51;11.70;;;10.50;;
76848;SDS011;65814;51.134;16.980;2023-09-18T11:52:26;10.40;;;8.80;;
76848;SDS011;65814;51.134;16.980;2023-09-18T11:54:57;9.90;;;8.60;;
76848;SDS011;65814;51.134;16.980;2023-09-18T11:57:26;13.20;;;8.70;;
76848;SDS011;65814;51.134;16.980;2023-09-18T11:59:57;10.10;;;9.10;;
76848;SDS011;65814;51.134;16.980;2023-09-18T12:02:38;9.90;;;8.50;;
76848;SDS011;65814;51.134;16.980;2023-09-18T12:05:14;11.10;;;9.30;;
76848;SDS011;65814;51.134;16.980;2023-09-18T12:07:44;9.60;;;8.40;;
76848;SDS011;65814;51.134;16.980;2023-09-18T12:10:16;11.30;;;8.30;;
76848;SDS011;65814;51.134;16.980;2023-09-18T12:12:46;8.90;;;7.70;;
76848;SDS011;65814;51.134;16.980;2023-09-18T12:15:16;10.50;;;7.80;;
76848;SDS011;65814;51.134;16.980;2023-09-18T12:17:45;9.40;;;7.80;;
76848;SDS011;65814;51.134;16.980;2023-09-18T12:20:17;10.80;;;7.40;;
76848;SDS011;65814;51.134;16.980;2023-09-18T12:22:47;7.10;;;6.20;;
76848;SDS011;65814;51.134;16.980;2023-09-18T12:25:16;7.40;;;6.40;;
76848;SDS011;65814;51.134;16.980;2023-09-18T12:27:46;7.30;;;6.00;;
76848;SDS011;65814;51.134;16.980;2023-09-18T12:30:19;6.50;;;5.40;;
76848;SDS011;65814;51.134;16.980;2023-09-18T12:32:49;8.10;;;6.60;;
76848;SDS011;65814;51.134;16.980;2023-09-18T12:35:18;7.00;;;6.10;;
76848;SDS011;65814;51.134;16.980;2023-09-18T12:37:46;7.40;;;6.40;;
76848;SDS011;65814;51.134;16.980;2023-09-18T12:40:21;12.40;;;6.00;;
76848;SDS011;65814;51.134;16.980;2023-09-18T12:42:49;9.00;;;6.60;;
76848;SDS011;65814;51.134;16.980;2023-09-18T12:45:18;8.40;;;6.70;;
76848;SDS011;65814;51.134;16.980;2023-09-18T12:47:46;10.20;;;7.40;;
76848;SDS011;65814;51.134;16.980;2023-09-18T12:50:14;7.90;;;6.50;;
76848;SDS011;65814;51.134;16.980;2023-09-18T12:52:42;8.00;;;7.10;;
76848;SDS011;65814;51.134;16.980;2023-09-18T12:55:25;11.60;;;6.80;;
76848;SDS011;65814;51.134;16.980;2023-09-18T12:57:55;7.60;;;5.40;;
76848;SDS011;65814;51.134;16.980;2023-09-18T13:00:23;8.90;;;6.40;;
76848;SDS011;65814;51.134;16.980;2023-09-18T13:02:54;7.80;;;6.30;;
76848;SDS011;65814;51.134;16.980;2023-09-18T13:05:25;7.60;;;6.20;;
76848;SDS011;65814;51.134;16.980;2023-09-18T13:07:54;8.50;;;6.60;;
76848;SDS011;65814;51.134;16.980;2023-09-18T13:10:22;8.50;;;6.20;;
76848;SDS011;65814;51.134;16.980;2023-09-18T13:12:55;8.70;;;6.70;;
76848;SDS011;65814;51.134;16.980;2023-09-18T13:17:58;9.30;;;7.20;;
76848;SDS011;65814;51.134;16.980;2023-09-18T13:20:28;9.40;;;6.80;;
76848;SDS011;65814;51.134;16.980;2023-09-18T13:22:58;9.40;;;6.80;;
76848;SDS011;65814;51.134;16.980;2023-09-18T13:25:35;9.10;;;6.90;;
76848;SDS011;65814;51.134;16.980;2023-09-18T13:28:07;8.40;;;6.50;;
76848;SDS011;65814;51.134;16.980;2023-09-18T13:30:37;9.10;;;6.40;;
76848;SDS011;65814;51.134;16.980;2023-09-18T13:35:40;8.40;;;7.40;;
76848;SDS011;65814;51.134;16.980;2023-09-18T13:38:09;8.80;;;6.60;;
76848;SDS011;65814;51.134;16.980;2023-09-18T13:40:43;12.90;;;8.30;;
76848;SDS011;65814;51.134;16.980;2023-09-18T13:43:13;8.60;;;7.10;;
76848;SDS011;65814;51.134;16.980;2023-09-18T13:45:49;8.40;;;7.40;;
76848;SDS011;65814;51.134;16.980;2023-09-18T13:48:21;8.50;;;6.60;;
76848;SDS011;65814;51.134;16.980;2023-09-18T13:50:50;9.40;;;7.30;;
76848;SDS011;65814;51.134;16.980;2023-09-18T13:53:20;7.80;;;6.50;;
76848;SDS011;65814;51.134;16.980;2023-09-18T13:55:54;10.80;;;6.90;;
76848;SDS011;65814;51.134;16.980;2023-09-18T13:58:24;10.00;;;7.30;;
76848;SDS011;65814;51.134;16.980;2023-09-18T14:00:52;9.00;;;7.20;;
76848;SDS011;65814;51.134;16.980;2023-09-18T14:03:20;7.60;;;6.80;;
76848;SDS011;65814;51.134;16.980;2023-09-18T14:05:49;8.30;;;7.50;;
76848;SDS011;65814;51.134;16.980;2023-09-18T14:08:17;12.10;;;8.00;;
76848;SDS011;65814;51.134;16.980;2023-09-18T14:10:45;9.40;;;7.40;;
76848;SDS011;65814;51.134;16.980;2023-09-18T14:13:13;8.30;;;7.10;;
76848;SDS011;65814;51.134;16.980;2023-09-18T14:15:41;10.40;;;8.00;;
76848;SDS011;65814;51.134;16.980;2023-09-18T14:18:08;11.70;;;7.80;;
76848;SDS011;65814;51.134;16.980;2023-09-18T14:20:37;13.40;;;8.40;;
76848;SDS011;65814;51.134;16.980;2023-09-18T14:23:05;14.90;;;8.70;;
76848;SDS011;65814;51.134;16.980;2023-09-18T14:25:34;9.50;;;7.40;;
76848;SDS011;65814;51.134;16.980;2023-09-18T14:28:02;9.60;;;7.20;;
76848;SDS011;65814;51.134;16.980;2023-09-18T14:30:30;13.30;;;8.90;;
76848;SDS011;65814;51.134;16.980;2023-09-18T14:32:59;9.90;;;7.30;;
76848;SDS011;65814;51.134;16.980;2023-09-18T14:35:29;8.40;;;7.20;;
76848;SDS011;65814;51.134;16.980;2023-09-18T14:37:57;8.10;;;7.30;;
76848;SDS011;65814;51.134;16.980;2023-09-18T14:40:25;8.20;;;7.00;;
76848;SDS011;65814;51.134;16.980;2023-09-18T14:42:53;11.50;;;7.70;;
76848;SDS011;65814;51.134;16.980;2023-09-18T14:45:22;10.50;;;6.90;;
76848;SDS011;65814;51.134;16.980;2023-09-18T14:47:50;9.40;;;7.70;;
76848;SDS011;65814;51.134;16.980;2023-09-18T14:50:18;8.00;;;7.20;;
76848;SDS011;65814;51.134;16.980;2023-09-18T14:52:46;8.70;;;7.10;;